Time;durP1;ratioP1;P1;durP2;ratioP2;P2;SDS_P1;SDS_P2;PMS_P1;PMS_P2;Temp;Humidity;BMP_temperature;BMP_pressure;BME280_temperature;BME280_humidity;BME280_pressure;Samples;Min_cycle;Max_cycle;Signal;HPM_P1;HPM_P2
2023/09/13 00:04:31;;;;;;;11.77;2.47;;;;;;;18.60;100.00;97689.78;18559886;32;20108;-56
2023/09/13 00:14:34;;;;;;;6.80;2.07;;;;;;;18.56;100.00;97678.63;18562109;32;20053;-56
2023/09/13 00:24:38;;;;;;;6.32;2.58;;;;;;;18.49;100.00;97689.28;18571647;32;20427;-57
2023/09/13 00:34:41;;;;;;;6.03;2.47;;;;;;;18.37;100.00;97702.81;18544478;32;20372;-57
2023/09/13 00:44:44;;;;;;;5.33;1.83;;;;;;;18.38;100.00;97709.88;18569982;32;20056;-57
2023/09/13 00:54:46;;;;;;;3.10;2.00;;;;;;;18.35;100.00;97707.78;18569874;32;20376;-57
2023/09/13 01:04:49;;;;;;;4.93;2.60;;;;;;;18.21;100.00;97705.19;18569403;32;20107;-57
2023/09/13 01:14:52;;;;;;;4.07;1.67;;;;;;;18.17;100.00;97687.78;18568217;31;20053;-57
2023/09/13 01:25:23;;;;;;;2.97;1.43;;;;;;;18.10;100.00;97689.09;18553936;32;20056;-57
2023/09/13 01:35:25;;;;;;;2.97;1.83;;;;;;;17.97;100.00;97705.63;18567706;32;20074;-57
2023/09/13 01:45:32;;;;;;;4.65;2.25;;;;;;;17.83;100.00;97697.47;18567062;32;20071;-57
2023/09/13 01:55:35;;;;;;;2.70;1.40;;;;;;;17.79;100.00;97700.06;18566290;32;20075;-57
2023/09/13 02:05:38;;;;;;;3.63;1.50;;;;;;;17.81;100.00;97707.94;18565525;32;20384;-57
2023/09/13 02:15:41;;;;;;;3.25;2.05;;;;;;;17.84;100.00;97708.13;18564648;32;20056;-57
2023/09/13 02:25:44;;;;;;;5.07;2.40;;;;;;;17.75;100.00;97715.50;18564200;32;20060;-57
2023/09/13 02:35:47;;;;;;;5.13;2.57;;;;;;;17.74;100.00;97724.81;18563293;32;20063;-57
2023/09/13 02:45:49;;;;;;;4.72;2.37;;;;;;;17.83;100.00;97705.69;18523268;32;20185;-57
2023/09/13 02:55:52;;;;;;;3.75;2.85;;;;;;;17.85;100.00;97714.41;18562690;32;20056;-57
2023/09/13 03:05:54;;;;;;;3.70;2.40;;;;;;;17.84;100.00;97713.59;18561998;32;20056;-56
2023/09/13 03:15:56;;;;;;;4.10;1.95;;;;;;;17.88;100.00;97700.91;18561440;32;20502;-57
2023/09/13 03:25:59;;;;;;;5.47;2.30;;;;;;;17.88;100.00;97709.13;18547443;32;20053;-57
2023/09/13 03:36:02;;;;;;;4.85;1.90;;;;;;;17.91;100.00;97711.25;18546489;32;20105;-57
2023/09/13 03:46:06;;;;;;;4.62;2.05;;;;;;;17.88;100.00;97689.97;18494119;32;20073;-57
2023/09/13 03:56:09;;;;;;;3.00;2.08;;;;;;;17.77;100.00;97702.31;18506748;32;20048;-57
2023/09/13 04:06:12;;;;;;;4.45;1.92;;;;;;;17.76;100.00;97698.78;18506907;32;20443;-57
2023/09/13 04:16:16;;;;;;;2.97;2.00;;;;;;;17.79;100.00;97703.59;18506082;32;20069;-57
2023/09/13 04:26:21;;;;;;;3.58;1.83;;;;;;;17.74;100.00;97700.19;18507118;32;20069;-57
2023/09/13 04:36:24;;;;;;;4.18;2.03;;;;;;;17.74;100.00;97698.25;18505163;32;20105;-57
2023/09/13 04:46:28;;;;;;;4.63;1.83;;;;;;;17.69;100.00;97720.31;18504659;32;20112;-56
2023/09/13 04:56:30;;;;;;;5.40;2.05;;;;;;;17.59;100.00;97726.84;18503642;32;20159;-57
2023/09/13 05:06:34;;;;;;;2.85;1.95;;;;;;;17.53;100.00;97732.78;18503741;32;20061;-56
2023/09/13 05:16:37;;;;;;;5.78;2.03;;;;;;;17.45;100.00;97726.12;18504074;32;20053;-56
2023/09/13 05:26:40;;;;;;;4.15;1.80;;;;;;;17.39;100.00;97732.84;18489118;32;20049;-57
2023/09/13 05:36:43;;;;;;;3.00;1.85;;;;;;;17.41;100.00;97744.28;18502549;32;20099;-57
2023/09/13 05:46:46;;;;;;;2.23;1.90;;;;;;;17.39;100.00;97757.44;18566691;32;20052;-57
2023/09/13 05:56:55;;;;;;;3.87;2.10;;;;;;;17.41;100.00;97757.94;18552221;32;20064;-57
2023/09/13 06:06:57;;;;;;;2.10;1.70;;;;;;;17.52;100.00;97772.97;18565573;32;20053;-57
2023/09/13 06:17:00;;;;;;;2.53;2.00;;;;;;;17.60;100.00;97764.00;18564299;32;20056;-57
2023/09/13 06:27:03;;;;;;;2.20;1.90;;;;;;;17.74;100.00;97780.31;18564305;32;20119;-57
2023/09/13 06:37:06;;;;;;;2.23;2.03;;;;;;;17.90;100.00;97793.59;18563473;32;20107;-56
2023/09/13 06:47:10;;;;;;;2.30;1.83;;;;;;;18.06;100.00;97789.34;18562920;32;20065;-56
2023/09/13 06:57:15;;;;;;;3.87;2.55;;;;;;;18.27;100.00;97810.66;18562525;32;20048;-57
2023/09/13 07:07:24;;;;;;;2.35;2.12;;;;;;;18.34;100.00;97812.94;18548063;32;20072;-57
2023/09/13 07:17:28;;;;;;;3.20;2.90;;;;;;;18.53;100.00;97818.94;18561810;32;20052;-57
2023/09/13 07:27:31;;;;;;;4.12;3.03;;;;;;;18.76;100.00;97829.75;18560862;32;20546;-57
2023/09/13 07:37:34;;;;;;;2.93;2.20;;;;;;;18.93;100.00;97838.03;18560094;31;20053;-57
2023/09/13 07:47:37;;;;;;;3.60;2.47;;;;;;;19.06;100.00;97849.16;18560427;32;20071;-57
2023/09/13 07:57:42;;;;;;;2.85;2.40;;;;;;;19.23;100.00;97851.91;18560283;32;20044;-57
2023/09/13 08:07:46;;;;;;;4.03;2.08;;;;;;;19.41;100.00;97862.88;18532788;32;20083;-57
2023/09/13 08:17:53;;;;;;;3.10;2.40;;;;;;;19.46;100.00;97862.72;18559464;32;20061;-57
2023/09/13 08:27:57;;;;;;;2.30;2.10;;;;;;;19.54;100.00;97881.13;18559283;32;20061;-57
2023/09/13 08:38:03;;;;;;;2.17;1.80;;;;;;;19.72;100.00;97886.56;18563892;32;20356;-57
2023/09/13 08:48:09;;;;;;;2.15;1.95;;;;;;;20.04;100.00;97906.41;18556366;32;20056;-57
2023/09/13 08:58:13;;;;;;;3.58;2.85;;;;;;;20.47;100.00;97900.78;18570281;32;20319;-57
2023/09/13 09:08:16;;;;;;;4.20;2.90;;;;;;;20.81;100.00;97904.50;18569127;32;20053;-57
2023/09/13 09:18:20;;;;;;;3.42;2.10;;;;;;;21.28;100.00;97914.56;18568529;32;20132;-57
2023/09/13 09:28:23;;;;;;;2.22;2.03;;;;;;;21.46;100.00;97906.97;18567651;31;20075;-57
2023/09/13 09:38:29;;;;;;;2.30;2.00;;;;;;;21.72;100.00;97907.91;18566963;32;20373;-57
2023/09/13 09:48:33;;;;;;;2.85;1.90;;;;;;;22.04;100.00;97902.75;18552869;32;20091;-57
2023/09/13 09:58:36;;;;;;;4.18;1.77;;;;;;;22.36;100.00;97905.84;18566037;32;20405;-57
2023/09/13 10:08:40;;;;;;;1.73;1.40;;;;;;;22.33;100.00;97910.03;18565497;32;20065;-57
2023/09/13 10:18:51;;;;;;;1.42;1.33;;;;;;;21.96;100.00;97908.00;18565022;31;20057;-57
2023/09/13 10:28:59;;;;;;;1.55;1.45;;;;;;;22.22;100.00;97903.38;18564843;32;20083;-57
2023/09/13 10:39:18;;;;;;;1.95;1.75;;;;;;;22.57;100.00;97897.47;18563961;32;20044;-57
2023/09/13 10:49:24;;;;;;;1.52;1.40;;;;;;;22.62;100.00;97911.81;18562979;32;20342;-57
2023/09/13 10:59:27;;;;;;;1.60;1.50;;;;;;;22.53;100.00;97907.56;18547100;32;20049;-57
2023/09/13 11:09:33;;;;;;;1.52;1.30;;;;;;;22.39;100.00;97900.41;18561962;32;20053;-57
2023/09/13 11:19:36;;;;;;;1.30;1.10;;;;;;;22.62;100.00;97891.72;18561178;32;20107;-57
2023/09/13 11:29:50;;;;;;;1.90;1.42;;;;;;;22.94;100.00;97895.50;18561193;32;20388;-57
2023/09/13 11:39:55;;;;;;;1.85;1.30;;;;;;;23.11;100.00;97904.69;18560277;32;20087;-57
2023/09/13 11:49:59;;;;;;;1.62;1.02;;;;;;;23.35;100.00;97901.91;18560455;32;20044;-57
2023/09/13 12:00:19;;;;;;;1.90;1.20;;;;;;;23.47;100.00;97903.78;18560287;32;20060;-57
2023/09/13 12:10:32;;;;;;;3.35;1.30;;;;;;;23.47;100.00;97906.56;18562267;31;20076;-57
2023/09/13 12:20:38;;;;;;;1.30;1.20;;;;;;;23.42;100.00;97904.06;18572420;32;20060;-57
2023/09/13 12:30:40;;;;;;;3.17;1.10;;;;;;;23.23;100.00;97912.13;18571576;32;20099;-57
2023/09/13 12:40:49;;;;;;;1.25;1.05;;;;;;;23.24;100.00;97900.78;18557220;31;20072;-58
2023/09/13 12:50:52;;;;;;;1.62;1.27;;;;;;;23.45;100.00;97908.09;18570505;32;20044;-57
2023/09/13 13:01:04;;;;;;;2.90;1.25;;;;;;;23.79;100.00;97911.38;18569879;32;20429;-57
2023/09/13 13:11:09;;;;;;;2.85;1.20;;;;;;;24.17;100.00;97904.56;18569283;32;20497;-57
2023/09/13 13:21:14;;;;;;;1.27;1.02;;;;;;;23.73;100.00;97896.25;18568249;32;20066;-57
2023/09/13 13:31:37;;;;;;;1.40;1.10;;;;;;;23.19;100.00;97895.50;18553718;32;20085;-58
2023/09/13 13:41:40;;;;;;;2.25;1.33;;;;;;;22.76;100.00;97888.63;18566920;32;20089;-57
2023/09/13 13:51:49;;;;;;;3.50;1.80;;;;;;;22.08;100.00;97896.22;18552546;32;20064;-57
2023/09/13 14:01:54;;;;;;;1.98;1.55;;;;;;;21.47;100.00;97891.25;18566043;32;20429;-57
2023/09/13 14:11:57;;;;;;;1.50;1.40;;;;;;;21.08;100.00;97904.34;18565294;32;20045;-57
2023/09/13 14:22:03;;;;;;;3.97;2.03;;;;;;;20.86;100.00;97909.00;18565006;32;20107;-56
2023/09/13 14:32:06;;;;;;;3.45;2.42;;;;;;;20.81;100.00;97910.00;18563537;32;20100;-57
2023/09/13 14:42:08;;;;;;;2.78;2.05;;;;;;;20.97;100.00;97914.94;18523208;32;20076;-57
2023/09/13 14:52:11;;;;;;;1.92;1.40;;;;;;;21.39;100.00;97922.41;18562761;32;20444;-57
2023/09/13 15:02:14;;;;;;;2.20;1.58;;;;;;;21.70;100.00;97924.75;18562357;32;20403;-57
2023/09/13 15:12:18;;;;;;;3.95;1.83;;;;;;;21.69;100.00;97919.59;18561829;32;20083;-57
2023/09/13 15:22:21;;;;;;;2.25;1.85;;;;;;;21.58;100.00;97914.50;18561495;32;20167;-57
2023/09/13 15:32:25;;;;;;;4.57;1.80;;;;;;;21.33;100.00;97924.56;18561280;32;20060;-57
2023/09/13 15:42:28;;;;;;;2.75;1.55;;;;;;;21.17;100.00;97921.56;18560688;32;20445;-57
2023/09/13 15:52:31;;;;;;;;;;;;;;;21.08;100.00;97923.59;18582420;32;20079;-57
2023/09/13 16:02:34;;;;;;;2.72;2.20;;;;;;;20.80;100.00;97929.56;18582188;32;20267;-57
2023/09/13 16:12:38;;;;;;;3.78;2.40;;;;;;;20.51;100.00;97950.34;18581567;32;20063;-57
2023/09/13 16:22:42;;;;;;;1.83;1.55;;;;;;;20.12;100.00;97955.00;18581153;32;20112;-57
2023/09/13 16:32:48;;;;;;;4.90;2.25;;;;;;;19.86;100.00;97979.72;18566315;32;20388;-55
2023/09/13 16:42:51;;;;;;;3.53;2.00;;;;;;;19.26;100.00;97996.56;18580224;31;20068;-55
2023/09/13 16:52:54;;;;;;;2.53;1.60;;;;;;;19.04;100.00;97993.94;18580626;32;20485;-56
2023/09/13 17:02:58;;;;;;;2.97;1.83;;;;;;;18.91;100.00;97984.69;18569863;32;20052;-56
2023/09/13 17:13:04;;;;;;;2.85;1.65;;;;;;;18.78;100.00;97997.37;18542145;32;20053;-57
2023/09/13 17:23:07;;;;;;;5.68;2.17;;;;;;;18.67;100.00;98017.94;18554387;32;20099;-57
2023/09/13 17:33:10;;;;;;;2.75;1.55;;;;;;;18.56;100.00;98023.69;18568177;31;20461;-57
2023/09/13 17:43:12;;;;;;;3.17;1.83;;;;;;;18.37;100.00;98037.56;18567309;32;20105;-57
2023/09/13 17:53:20;;;;;;;3.73;1.87;;;;;;;18.32;100.00;98039.63;18552840;32;20060;-57
2023/09/13 18:03:23;;;;;;;2.62;1.50;;;;;;;18.25;100.00;98051.84;18566357;32;20106;-56
2023/09/13 18:13:26;;;;;;;6.50;1.85;;;;;;;18.20;100.00;98059.34;18564383;32;20070;-56
2023/09/13 18:23:30;;;;;;;3.90;1.93;;;;;;;18.10;100.00;98057.66;18537747;32;20048;-56
2023/09/13 18:33:37;;;;;;;5.07;2.05;;;;;;;18.00;100.00;98066.94;18549690;32;20397;-56
2023/09/13 18:43:42;;;;;;;6.50;1.80;;;;;;;17.87;100.00;98082.25;18548928;32;20045;-56
2023/09/13 18:53:44;;;;;;;7.70;1.90;;;;;;;17.77;100.00;98093.41;18548988;32;20093;-56
2023/09/13 19:03:47;;;;;;;6.28;1.73;;;;;;;17.70;100.00;98095.75;18548570;32;20053;-57
2023/09/13 19:13:51;;;;;;;6.10;2.57;;;;;;;17.65;100.00;98110.34;18562001;32;20056;-56
2023/09/13 19:23:53;;;;;;;2.37;1.52;;;;;;;17.56;100.00;98118.44;18561361;31;20076;-57
2023/09/13 19:33:58;;;;;;;4.87;2.20;;;;;;;17.51;100.00;98132.22;18561069;32;20071;-56
2023/09/13 19:44:01;;;;;;;7.20;2.33;;;;;;;17.47;100.00;98136.66;18546800;32;20074;-56
2023/09/13 19:54:04;;;;;;;2.92;1.60;;;;;;;17.42;100.00;98145.00;18546213;32;20075;-56
2023/09/13 20:04:08;;;;;;;2.63;1.50;;;;;;;17.34;100.00;98149.22;18559919;32;20056;-56
2023/09/13 20:14:12;;;;;;;2.70;1.45;;;;;;;17.31;100.00;98160.78;18544992;32;20425;-56
2023/09/13 20:24:15;;;;;;;6.47;1.97;;;;;;;17.30;100.00;98166.53;18559624;32;20073;-56
2023/09/13 20:34:18;;;;;;;3.47;1.75;;;;;;;17.25;100.00;98173.72;18565469;32;20075;-57
2023/09/13 20:44:21;;;;;;;3.47;1.70;;;;;;;17.24;100.00;98165.84;18544059;32;20429;-56
2023/09/13 20:54:24;;;;;;;7.32;1.60;;;;;;;17.23;100.00;98180.59;18555699;32;20075;-57
2023/09/13 21:04:27;;;;;;;4.03;1.77;;;;;;;17.23;100.00;98186.87;18569662;32;20057;-56
2023/09/13 21:14:31;;;;;;;4.97;1.87;;;;;;;17.22;100.00;98185.25;18568945;32;20064;-56
2023/09/13 21:24:33;;;;;;;4.57;1.90;;;;;;;17.22;100.00;98185.25;18568694;32;20079;-56
2023/09/13 21:34:36;;;;;;;3.85;1.80;;;;;;;17.20;100.00;98182.00;18554336;32;20060;-55
2023/09/13 21:44:58;;;;;;;1.50;1.35;;;;;;;17.19;100.00;98185.84;18555326;32;20053;-56
2023/09/13 21:55:01;;;;;;;5.50;1.80;;;;;;;17.14;100.00;98193.34;18552805;32;20083;-56
2023/09/13 22:05:11;;;;;;;2.27;1.70;;;;;;;17.11;100.00;98205.66;18566102;31;20041;-56
2023/09/13 22:15:14;;;;;;;1.83;1.37;;;;;;;17.04;100.00;98205.25;18550898;32;20449;-56
2023/09/13 22:25:19;;;;;;;3.10;1.67;;;;;;;17.08;100.00;98203.53;18550471;32;20082;-56
2023/09/13 22:35:21;;;;;;;2.50;1.58;;;;;;;17.08;100.00;98212.53;18564024;32;20104;-56
2023/09/13 22:45:24;;;;;;;3.50;1.77;;;;;;;17.09;100.00;98205.16;18497324;32;20067;-56
2023/09/13 22:55:28;;;;;;;1.67;1.25;;;;;;;17.10;100.00;98214.97;18497604;32;20124;-56
2023/09/13 23:05:30;;;;;;;;;;;;;;;16.97;100.00;98219.28;18497739;32;20071;-56
2023/09/13 23:15:33;;;;;;;2.92;1.70;;;;;;;16.96;100.00;98214.12;18496164;32;19953;-56
2023/09/13 23:25:37;;;;;;;2.67;1.57;;;;;;;16.91;100.00;98207.66;18497008;32;20101;-56
2023/09/13 23:35:43;;;;;;;2.70;1.67;;;;;;;16.86;100.00;98224.06;18494800;32;20071;-56
2023/09/13 23:45:46;;;;;;;2.78;1.45;;;;;;;16.86;100.00;98213.16;18494621;32;20044;-56
2023/09/13 23:55:48;;;;;;;2.20;1.20;;;;;;;16.81;100.00;98212.44;18495171;32;20053;-56
